createdAt,value
2023-05-24T00:00:34.861Z,6.00
2023-05-24T00:03:04.633Z,7.88
2023-05-24T00:05:31.628Z,6.78
2023-05-24T00:08:00.840Z,6.15
2023-05-24T00:10:27.400Z,7.05
2023-05-24T00:12:54.043Z,5.97
2023-05-24T00:15:20.626Z,6.93
2023-05-24T00:17:47.923Z,6.35
2023-05-24T00:20:14.723Z,6.18
2023-05-24T00:22:41.908Z,7.20
2023-05-24T00:25:09.199Z,6.97
2023-05-24T00:27:39.588Z,8.05
2023-05-24T00:30:07.571Z,7.50
2023-05-24T00:32:34.297Z,7.28
2023-05-24T00:35:00.951Z,8.82
2023-05-24T00:37:27.650Z,7.90
2023-05-24T00:39:54.097Z,7.32
2023-05-24T00:42:21.709Z,8.10
2023-05-24T00:44:48.565Z,8.38
2023-05-24T00:47:16.273Z,8.52
2023-05-24T00:49:43.292Z,8.13
2023-05-24T00:52:10.266Z,8.23
2023-05-24T00:54:36.866Z,8.05
2023-05-24T00:57:03.657Z,9.07
2023-05-24T00:59:31.257Z,9.63
2023-05-24T01:01:58.550Z,8.88
2023-05-24T01:04:25.948Z,9.48
2023-05-24T01:07:30.302Z,8.93
2023-05-24T01:10:09.856Z,8.88
2023-05-24T01:12:49.826Z,8.98
2023-05-24T01:15:31.359Z,8.70
2023-05-24T01:18:16.724Z,10.60
2023-05-24T01:20:44.440Z,9.10
2023-05-24T01:23:46.912Z,8.98
2023-05-24T01:26:13.347Z,9.52
2023-05-24T01:28:43.345Z,9.30
2023-05-24T01:31:13.185Z,9.40
2023-05-24T01:33:43.997Z,9.57
2023-05-24T01:36:10.904Z,9.55
2023-05-24T01:38:39.363Z,10.30
2023-05-24T01:41:19.580Z,10.50
2023-05-24T01:44:03.184Z,9.90
2023-05-24T01:46:36.865Z,10.32
2023-05-24T01:49:27.183Z,10.10
2023-05-24T01:52:12.746Z,9.90
2023-05-24T01:54:45.716Z,10.57
2023-05-24T01:57:13.028Z,11.88
2023-05-24T01:59:43.333Z,11.35
2023-05-24T02:02:11.412Z,11.80
2023-05-24T02:04:38.054Z,11.98
2023-05-24T02:07:05.047Z,11.02
2023-05-24T02:09:31.678Z,10.27
2023-05-24T02:11:58.308Z,11.48
2023-05-24T02:14:25.007Z,11.43
2023-05-24T02:16:52.143Z,12.95
2023-05-24T02:19:18.736Z,11.88
2023-05-24T02:21:45.506Z,11.43
2023-05-24T02:24:12.612Z,12.25
2023-05-24T02:26:39.511Z,11.00
2023-05-24T02:29:06.246Z,10.82
2023-05-24T02:31:33.004Z,10.80
2023-05-24T02:33:59.729Z,11.38
2023-05-24T02:36:26.334Z,10.90
2023-05-24T02:38:53.302Z,11.65
2023-05-24T02:41:20.231Z,13.73
2023-05-24T02:43:47.847Z,12.25
2023-05-24T02:46:15.348Z,11.55
2023-05-24T02:48:41.899Z,12.05
2023-05-24T02:51:08.362Z,12.30
2023-05-24T02:53:34.900Z,13.65
2023-05-24T02:56:01.505Z,13.35
2023-05-24T02:58:29.087Z,13.10
2023-05-24T03:00:55.838Z,13.52
2023-05-24T03:03:22.403Z,12.57
2023-05-24T03:05:49.155Z,13.02
2023-05-24T03:08:16.725Z,13.73
2023-05-24T03:10:43.543Z,12.93
2023-05-24T03:13:10.295Z,13.32
2023-05-24T03:15:36.852Z,13.07
2023-05-24T03:18:03.730Z,13.23
2023-05-24T03:20:31.248Z,15.15
2023-05-24T03:22:59.046Z,12.90
2023-05-24T03:25:27.794Z,13.65
2023-05-24T03:27:54.357Z,14.38
2023-05-24T03:30:21.899Z,13.38
2023-05-24T03:32:48.579Z,13.65
2023-05-24T03:35:15.150Z,13.55
2023-05-24T03:37:41.844Z,14.30
2023-05-24T03:40:08.931Z,14.45
2023-05-24T03:42:35.971Z,14.45
2023-05-24T03:45:02.858Z,15.60
2023-05-24T03:47:29.483Z,15.52
2023-05-24T03:49:56.362Z,13.93
2023-05-24T03:52:23.036Z,13.70
2023-05-24T03:54:50.006Z,16.00
2023-05-24T03:57:16.907Z,15.15
2023-05-24T03:59:43.547Z,14.45
2023-05-24T04:02:10.452Z,16.13
2023-05-24T04:04:39.972Z,14.13
2023-05-24T04:07:08.033Z,14.68
2023-05-24T04:09:34.701Z,15.05
2023-05-24T04:12:01.259Z,13.52
2023-05-24T04:14:27.954Z,14.10
2023-05-24T04:16:57.670Z,15.77
2023-05-24T04:19:24.587Z,13.95
2023-05-24T04:21:51.808Z,14.98
2023-05-24T04:24:18.921Z,14.63
2023-05-24T04:26:45.596Z,15.40
2023-05-24T04:29:13.000Z,15.40
2023-05-24T04:31:43.317Z,15.48
2023-05-24T04:34:13.152Z,17.08
2023-05-24T04:36:40.055Z,18.17
2023-05-24T04:39:07.315Z,17.52
2023-05-24T04:41:36.292Z,16.70
2023-05-24T04:44:03.042Z,17.63
2023-05-24T04:46:29.896Z,17.23
2023-05-24T04:48:56.471Z,16.67
2023-05-24T04:51:26.960Z,14.57
2023-05-24T04:53:53.598Z,15.18
2023-05-24T04:56:20.558Z,15.63
2023-05-24T04:58:48.042Z,13.70
2023-05-24T05:01:14.684Z,15.20
2023-05-24T05:03:41.466Z,15.95
2023-05-24T05:06:08.226Z,14.25
2023-05-24T05:08:35.032Z,15.02
2023-05-24T05:11:03.352Z,15.00
2023-05-24T05:13:30.129Z,14.90
2023-05-24T05:15:59.793Z,12.25
2023-05-24T05:18:26.504Z,11.05
2023-05-24T05:20:54.130Z,13.60
2023-05-24T05:23:21.050Z,12.07
2023-05-24T05:25:48.641Z,12.02
2023-05-24T05:28:16.926Z,11.98
2023-05-24T05:30:43.912Z,11.02
2023-05-24T05:33:14.339Z,10.48
2023-05-24T05:35:41.416Z,8.38
2023-05-24T05:38:07.944Z,9.48
2023-05-24T05:40:37.276Z,8.35
2023-05-24T05:43:08.153Z,9.05
2023-05-24T05:45:35.804Z,9.63
2023-05-24T05:48:05.052Z,7.35
2023-05-24T05:50:32.920Z,7.63
2023-05-24T05:52:59.462Z,7.13
2023-05-24T05:55:26.766Z,6.68
2023-05-24T05:57:54.892Z,7.88
2023-05-24T06:00:25.750Z,7.10
2023-05-24T06:02:52.728Z,7.05
2023-05-24T06:05:19.767Z,6.43
2023-05-24T06:07:49.406Z,5.63
2023-05-24T06:10:18.062Z,6.18
2023-05-24T06:12:44.671Z,5.90
2023-05-24T06:15:12.287Z,6.47
2023-05-24T06:17:41.492Z,7.43
2023-05-24T06:20:15.727Z,5.00
2023-05-24T06:22:42.985Z,4.82
2023-05-24T06:25:12.418Z,6.05
2023-05-24T06:27:39.109Z,5.75
2023-05-24T06:30:07.231Z,5.45
2023-05-24T06:32:35.094Z,4.82
2023-05-24T06:35:03.636Z,5.85
2023-05-24T06:37:31.424Z,4.97
2023-05-24T06:39:59.209Z,5.78
2023-05-24T06:42:26.219Z,5.85
2023-05-24T06:44:55.941Z,6.32
2023-05-24T06:47:22.784Z,4.57
2023-05-24T06:49:50.045Z,4.97
2023-05-24T06:52:16.735Z,5.03
2023-05-24T06:54:44.490Z,4.20
2023-05-24T06:57:11.273Z,5.50
2023-05-24T06:59:37.876Z,5.00
2023-05-24T07:02:04.963Z,4.72
2023-05-24T07:04:31.644Z,5.07
2023-05-24T07:06:58.671Z,4.45
2023-05-24T07:09:25.374Z,5.13
2023-05-24T07:11:52.762Z,4.82
2023-05-24T07:14:19.480Z,4.25
2023-05-24T07:16:46.827Z,5.85
2023-05-24T07:19:13.742Z,4.72
2023-05-24T07:21:40.443Z,4.65
2023-05-24T07:24:08.613Z,4.40
2023-05-24T07:26:35.154Z,4.32
2023-05-24T07:29:02.816Z,4.45
2023-05-24T07:31:31.433Z,6.10
2023-05-24T07:33:58.986Z,4.07
2023-05-24T07:36:26.187Z,4.72
2023-05-24T07:38:53.164Z,4.75
2023-05-24T07:41:20.823Z,3.90
2023-05-24T07:43:47.672Z,4.30
2023-05-24T07:46:14.144Z,5.05
2023-05-24T07:48:40.631Z,3.78
2023-05-24T07:51:07.609Z,4.20
2023-05-24T07:53:34.717Z,4.45
2023-05-24T07:56:01.371Z,4.07
2023-05-24T07:58:28.300Z,3.85
2023-05-24T08:00:56.087Z,4.82
2023-05-24T08:03:26.140Z,4.22
2023-05-24T08:05:52.858Z,3.72
2023-05-24T08:08:20.526Z,3.53
2023-05-24T08:10:49.167Z,4.68
2023-05-24T08:13:16.320Z,4.15
2023-05-24T08:15:43.929Z,4.03
2023-05-24T08:18:10.957Z,5.10
2023-05-24T08:20:38.951Z,4.35
2023-05-24T08:23:06.456Z,4.00
2023-05-24T08:25:33.156Z,4.15
2023-05-24T08:27:59.827Z,3.83
2023-05-24T08:30:29.603Z,4.20
2023-05-24T08:32:58.626Z,4.53
2023-05-24T14:35:10.619Z,5.07
2023-05-24T14:37:37.595Z,5.85
2023-05-24T14:40:06.906Z,5.80
2023-05-24T14:42:33.620Z,4.88
2023-05-24T14:45:00.567Z,4.53
2023-05-24T14:47:27.113Z,4.40
2023-05-24T14:49:54.282Z,4.15
2023-05-24T14:52:21.229Z,5.90
2023-05-24T14:54:48.233Z,5.43
2023-05-24T14:57:15.146Z,4.78
2023-05-24T14:59:41.629Z,4.75
2023-05-24T15:02:08.563Z,4.50
2023-05-24T15:04:37.415Z,5.10
2023-05-24T15:07:04.456Z,5.63
2023-05-24T15:09:31.143Z,4.97
2023-05-24T15:11:57.771Z,5.13
2023-05-24T15:14:24.368Z,4.03
2023-05-24T15:16:51.182Z,5.18
2023-05-24T15:19:17.687Z,4.75
2023-05-24T15:21:44.653Z,4.53
2023-05-24T15:24:11.257Z,6.32
2023-05-24T15:26:39.223Z,4.47
2023-05-24T15:29:05.755Z,6.07
2023-05-24T15:31:33.296Z,5.30
2023-05-24T15:33:59.848Z,5.10
2023-05-24T15:36:26.344Z,5.13
2023-05-24T15:38:52.897Z,5.00
2023-05-24T15:41:19.557Z,4.53
2023-05-24T15:43:46.493Z,4.15
2023-05-24T15:46:13.286Z,5.25
2023-05-24T15:48:40.237Z,4.63
2023-05-24T15:53:37.919Z,4.78
2023-05-24T15:56:04.731Z,4.30
2023-05-24T15:58:31.288Z,4.65
2023-05-24T16:00:59.047Z,5.30
2023-05-24T16:03:25.953Z,4.30
2023-05-24T16:05:52.606Z,5.78
2023-05-24T16:08:27.390Z,3.72
2023-05-24T16:10:55.256Z,4.03
2023-05-24T16:13:22.069Z,4.55
2023-05-24T16:15:51.671Z,3.78
2023-05-24T16:18:22.825Z,4.20
2023-05-24T16:20:50.838Z,4.43
2023-05-24T16:23:19.324Z,3.92
2023-05-24T16:25:48.255Z,4.43
2023-05-24T16:28:15.227Z,5.10
2023-05-24T16:30:43.343Z,3.40
2023-05-24T16:33:10.180Z,4.45
2023-05-24T16:35:38.085Z,4.80
2023-05-24T16:38:04.704Z,3.97
2023-05-24T16:40:31.203Z,5.28
2023-05-24T16:42:57.916Z,4.43
2023-05-24T16:45:24.452Z,4.07
2023-05-24T16:47:51.445Z,4.22
2023-05-24T16:50:18.058Z,3.78
2023-05-24T16:52:44.907Z,3.97
2023-05-24T16:55:14.742Z,5.70
2023-05-24T16:57:41.894Z,4.85
2023-05-24T17:00:09.994Z,4.05
2023-05-24T17:02:37.858Z,3.35
2023-05-24T17:05:04.656Z,3.75
2023-05-24T17:07:31.899Z,3.90
2023-05-24T17:09:58.442Z,3.35
2023-05-24T17:12:25.111Z,3.78
2023-05-24T17:14:52.804Z,3.45
2023-05-24T17:17:19.724Z,3.75
2023-05-24T17:19:49.123Z,3.45
2023-05-24T17:22:19.591Z,3.63
2023-05-24T17:24:46.544Z,3.83
2023-05-24T17:27:13.098Z,3.17
2023-05-24T17:29:39.721Z,3.85
2023-05-24T17:32:06.314Z,3.25
2023-05-24T17:34:34.606Z,3.42
2023-05-24T17:37:01.753Z,4.38
2023-05-24T17:39:28.195Z,3.08
2023-05-24T17:41:54.668Z,4.03
2023-05-24T17:44:21.254Z,3.33
2023-05-24T17:46:47.791Z,3.70
2023-05-24T17:49:14.862Z,3.22
2023-05-24T17:51:41.446Z,3.35
2023-05-24T17:54:10.259Z,3.90
2023-05-24T17:56:37.223Z,3.30
2023-05-24T17:59:03.799Z,3.67
2023-05-24T18:01:30.860Z,3.33
2023-05-24T18:03:58.055Z,3.40
2023-05-24T18:06:24.544Z,3.15
2023-05-24T18:08:51.113Z,2.60
2023-05-24T18:11:17.767Z,3.20
2023-05-24T18:13:44.527Z,2.53
2023-05-24T18:16:12.274Z,4.28
2023-05-24T18:18:39.292Z,3.30
2023-05-24T18:21:06.461Z,3.17
2023-05-24T18:23:37.366Z,3.03
2023-05-24T18:26:08.903Z,2.97
2023-05-24T18:28:39.584Z,2.67
2023-05-24T18:31:14.857Z,3.42
2023-05-24T18:33:42.054Z,3.15
2023-05-24T18:36:09.641Z,3.25
2023-05-24T18:38:45.495Z,3.28
2023-05-24T18:41:13.544Z,3.80
2023-05-24T18:43:41.301Z,3.05
2023-05-24T18:46:13.387Z,3.90
2023-05-24T18:48:43.790Z,2.75
2023-05-24T18:51:10.433Z,2.83
2023-05-24T18:53:36.945Z,2.70
2023-05-24T18:56:03.706Z,3.20
2023-05-24T18:58:30.964Z,3.53
2023-05-24T19:00:57.552Z,3.58
2023-05-24T19:03:25.012Z,2.95
2023-05-24T19:05:51.684Z,3.03
2023-05-24T19:08:18.528Z,3.42
2023-05-24T19:10:45.139Z,3.20
2023-05-24T19:13:11.670Z,3.33
2023-05-24T19:15:38.176Z,3.22
2023-05-24T19:18:06.301Z,3.20
2023-05-24T19:20:32.894Z,2.88
2023-05-24T19:23:00.352Z,3.65
2023-05-24T19:25:26.915Z,3.30
2023-05-24T19:27:59.789Z,3.72
2023-05-24T19:30:27.474Z,4.18
2023-05-24T19:32:54.111Z,3.35
2023-05-24T19:35:21.112Z,2.85
2023-05-24T19:37:48.089Z,2.72
2023-05-24T19:40:14.630Z,3.17
2023-05-24T19:42:41.459Z,2.83
2023-05-24T19:45:09.454Z,3.28
2023-05-24T19:47:36.199Z,3.20
2023-05-24T19:50:03.178Z,3.28
2023-05-24T19:52:31.926Z,3.30
2023-05-24T19:54:59.932Z,3.00
2023-05-24T19:57:26.841Z,3.30
2023-05-24T19:59:54.902Z,3.05
2023-05-24T20:02:22.972Z,3.58
2023-05-24T20:04:49.534Z,3.65
2023-05-24T20:07:16.097Z,4.43
2023-05-24T20:09:42.666Z,3.67
2023-05-24T20:12:09.356Z,3.90
2023-05-24T20:14:36.033Z,4.63
2023-05-24T20:17:02.562Z,3.58
2023-05-24T20:19:30.883Z,3.00
2023-05-24T20:21:58.208Z,3.78
2023-05-24T20:24:24.753Z,4.82
2023-05-24T20:26:51.198Z,3.75
2023-05-24T20:29:18.121Z,4.07
2023-05-24T20:31:44.925Z,3.50
2023-05-24T20:34:11.491Z,4.50
2023-05-24T20:36:38.465Z,4.65
2023-05-24T20:39:05.031Z,4.55
2023-05-24T20:41:31.615Z,4.00
2023-05-24T20:43:58.490Z,4.18
2023-05-24T20:46:25.265Z,4.10
2023-05-24T20:48:53.933Z,4.53
2023-05-24T20:51:20.864Z,4.53
2023-05-24T20:53:49.427Z,3.83
2023-05-24T20:56:16.128Z,3.75
2023-05-24T20:58:43.900Z,4.72
2023-05-24T21:01:10.646Z,4.00
2023-05-24T21:03:37.202Z,4.10
2023-05-24T21:06:03.793Z,4.10
2023-05-24T21:08:30.700Z,4.82
2023-05-24T21:10:57.274Z,4.47
2023-05-24T21:13:25.479Z,4.55
2023-05-24T21:15:52.089Z,4.70
2023-05-24T21:18:18.592Z,5.72
2023-05-24T21:20:45.305Z,5.47
2023-05-24T21:23:11.853Z,4.72
2023-05-24T21:25:38.475Z,4.97
2023-05-24T21:28:05.043Z,5.28
2023-05-24T21:30:31.530Z,5.22
2023-05-24T21:32:58.194Z,5.88
2023-05-24T21:35:26.270Z,4.88
2023-05-24T21:37:52.891Z,5.88
2023-05-24T21:40:19.376Z,6.25
2023-05-24T21:42:45.897Z,6.22
2023-05-24T21:45:12.849Z,4.90
2023-05-24T21:47:39.503Z,8.13
2023-05-24T21:50:06.888Z,5.50
2023-05-24T21:52:33.606Z,6.28
2023-05-24T21:55:00.356Z,4.40
2023-05-24T21:57:27.047Z,4.97
2023-05-24T21:59:53.663Z,5.10
2023-05-24T22:02:21.557Z,5.72
2023-05-24T22:04:48.816Z,5.22
2023-05-24T22:07:15.368Z,6.22
2023-05-24T22:09:41.888Z,6.72
2023-05-24T22:12:08.572Z,5.55
2023-05-24T22:14:35.288Z,5.40
2023-05-24T22:17:02.293Z,5.07
2023-05-24T22:19:39.916Z,6.43
2023-05-24T22:22:08.429Z,5.80
2023-05-24T22:24:34.926Z,6.22
2023-05-24T22:27:02.588Z,5.95
2023-05-24T22:29:29.628Z,7.25
2023-05-24T22:31:56.573Z,6.82
2023-05-24T22:34:27.834Z,6.53
2023-05-24T22:36:55.074Z,6.30
2023-05-24T22:39:21.983Z,6.53
2023-05-24T22:41:48.708Z,5.85
2023-05-24T22:44:15.799Z,6.45
2023-05-24T22:46:42.346Z,5.82
2023-05-24T22:49:13.241Z,5.60
2023-05-24T22:51:44.106Z,6.55
2023-05-24T22:54:11.686Z,5.78
2023-05-24T22:56:39.766Z,5.05
2023-05-24T22:59:06.714Z,6.90
2023-05-24T23:01:33.735Z,5.85
2023-05-24T23:04:15.915Z,6.18
2023-05-24T23:06:46.886Z,6.28
2023-05-24T23:09:13.497Z,5.70
2023-05-24T23:11:40.474Z,6.25
2023-05-24T23:14:09.006Z,6.85
2023-05-24T23:16:45.567Z,7.15
2023-05-24T23:19:18.607Z,6.95
2023-05-24T23:21:52.266Z,6.20
2023-05-24T23:24:18.938Z,7.70
2023-05-24T23:26:45.484Z,6.45
2023-05-24T23:29:12.025Z,6.00
2023-05-24T23:31:38.699Z,6.50
2023-05-24T23:34:05.769Z,7.40
2023-05-24T23:36:32.367Z,6.63
2023-05-24T23:38:58.930Z,7.57
2023-05-24T23:41:26.607Z,7.35
2023-05-24T23:43:53.585Z,6.35
2023-05-24T23:46:22.460Z,8.68
2023-05-24T23:48:49.339Z,7.47
2023-05-24T23:51:15.956Z,7.25
2023-05-24T23:53:42.679Z,7.82
2023-05-24T23:56:09.163Z,7.53
2023-05-24T23:58:37.792Z,7.63
